createdAt,value
2023-05-25T00:00:11.846Z,14.26
2023-05-25T00:02:40.829Z,14.23
2023-05-25T00:05:11.383Z,14.27
2023-05-25T00:07:40.365Z,14.17
2023-05-25T00:10:09.847Z,14.34
2023-05-25T00:12:38.880Z,14.21
2023-05-25T00:15:07.786Z,14.33
2023-05-25T00:17:38.057Z,14.39
2023-05-25T00:20:08.626Z,14.37
2023-05-25T00:22:40.353Z,14.26
2023-05-25T00:25:10.065Z,14.39
2023-05-25T00:27:38.965Z,14.13
2023-05-25T00:30:08.162Z,14.16
2023-05-25T00:32:37.138Z,14.13
2023-05-25T00:35:06.189Z,14.24
2023-05-25T00:37:35.058Z,14.28
2023-05-25T00:40:03.482Z,14.07
2023-05-25T00:42:31.726Z,14.07
2023-05-25T00:45:00.507Z,14.00
2023-05-25T00:47:33.211Z,13.93
2023-05-25T00:50:02.625Z,14.05
2023-05-25T00:52:32.104Z,13.97
2023-05-25T00:55:02.006Z,13.90
2023-05-25T00:57:34.792Z,13.97
2023-05-25T01:00:05.649Z,13.97
2023-05-25T01:02:34.057Z,14.00
2023-05-25T01:05:03.174Z,13.85
2023-05-25T01:07:31.621Z,13.83
2023-05-25T01:10:02.341Z,13.84
2023-05-25T01:12:31.176Z,13.88
2023-05-25T01:14:59.154Z,13.85
2023-05-25T01:17:30.991Z,13.75
2023-05-25T01:22:55.584Z,13.97
2023-05-25T01:25:52.590Z,13.88
2023-05-25T01:28:29.792Z,13.74
2023-05-25T01:30:58.788Z,13.92
2023-05-25T01:33:28.860Z,13.95
2023-05-25T01:35:57.004Z,14.09
2023-05-25T01:38:26.261Z,14.00
2023-05-25T01:40:54.614Z,13.88
2023-05-25T01:43:23.329Z,13.87
2023-05-25T01:45:52.481Z,13.94
2023-05-25T01:48:27.675Z,14.09
2023-05-25T01:51:01.365Z,14.00
2023-05-25T01:53:37.998Z,14.01
2023-05-25T01:56:09.286Z,14.01
2023-05-25T01:58:43.377Z,14.33
2023-05-25T02:01:13.447Z,14.29
2023-05-25T02:03:42.933Z,14.35
2023-05-25T02:06:11.366Z,14.42
2023-05-25T02:08:40.294Z,14.37
2023-05-25T02:11:09.587Z,14.26
2023-05-25T02:13:38.174Z,14.07
2023-05-25T02:16:07.911Z,14.23
2023-05-25T02:18:36.697Z,14.27
2023-05-25T02:21:04.799Z,14.19
2023-05-25T02:23:33.650Z,14.13
2023-05-25T02:26:02.882Z,14.17
2023-05-25T02:41:03.643Z,14.16
2023-05-25T02:44:14.579Z,14.17
2023-05-25T02:47:25.993Z,13.98
2023-05-25T02:53:30.204Z,14.50
2023-05-25T02:56:25.560Z,14.63
2023-05-25T03:02:16.347Z,14.73
2023-05-25T03:05:37.747Z,14.70
2023-05-25T03:12:00.315Z,14.86
2023-05-25T03:14:55.407Z,14.91
2023-05-25T03:17:39.684Z,14.95
2023-05-25T03:20:35.367Z,15.08
2023-05-25T03:26:01.385Z,15.00
2023-05-25T03:29:01.810Z,15.06
2023-05-25T03:31:45.908Z,14.99
2023-05-25T03:34:42.594Z,14.98
2023-05-25T03:37:28.923Z,15.16
2023-05-25T03:40:25.037Z,15.04
2023-05-25T03:43:42.862Z,14.88
2023-05-25T03:46:57.360Z,15.09
2023-05-25T04:02:20.263Z,15.04
2023-05-25T04:11:08.159Z,14.13
2023-05-25T04:13:40.830Z,13.85
2023-05-25T04:16:13.536Z,13.81
2023-05-25T04:18:42.835Z,13.81
2023-05-25T04:21:13.757Z,13.70
2023-05-25T04:23:44.081Z,13.70
2023-05-25T04:26:12.719Z,13.48
2023-05-25T04:28:43.738Z,13.24
2023-05-25T04:31:27.913Z,12.93
2023-05-25T04:34:15.626Z,13.06
2023-05-25T04:36:51.798Z,12.75
2023-05-25T04:39:22.142Z,12.48
2023-05-25T04:41:54.708Z,12.41
2023-05-25T04:44:25.206Z,12.51
2023-05-25T04:46:56.490Z,12.51
2023-05-25T04:49:32.202Z,12.40
2023-05-25T04:52:03.857Z,12.23
2023-05-25T04:54:42.636Z,11.88
2023-05-25T04:57:12.830Z,11.77
2023-05-25T04:59:45.218Z,11.41
2023-05-25T05:02:14.219Z,11.37
2023-05-25T05:04:44.198Z,11.25
2023-05-25T05:07:14.123Z,11.14
2023-05-25T05:09:42.719Z,11.10
2023-05-25T05:12:14.287Z,11.18
2023-05-25T05:14:54.340Z,11.12
2023-05-25T05:17:24.689Z,11.17
2023-05-25T05:19:57.098Z,10.87
2023-05-25T05:22:26.502Z,10.48
2023-05-25T05:24:55.247Z,10.45
2023-05-25T05:27:30.578Z,10.38
2023-05-25T05:30:15.841Z,10.21
2023-05-25T05:32:46.786Z,10.00
2023-05-25T05:35:16.897Z,10.00
2023-05-25T05:37:50.275Z,9.70
2023-05-25T05:40:19.677Z,9.51
2023-05-25T05:42:48.797Z,9.25
2023-05-25T05:45:18.153Z,9.17
2023-05-25T05:47:47.741Z,8.87
2023-05-25T05:50:19.440Z,8.81
2023-05-25T05:52:49.808Z,8.88
2023-05-25T05:55:19.368Z,8.93
2023-05-25T05:57:48.366Z,8.88
2023-05-25T06:00:19.922Z,8.90
2023-05-25T06:02:48.539Z,8.81
2023-05-25T06:05:22.618Z,8.62
2023-05-25T06:07:56.634Z,8.52
2023-05-25T06:10:25.544Z,8.52
2023-05-25T06:12:55.574Z,8.26
2023-05-25T06:15:25.837Z,8.00
2023-05-25T06:18:05.215Z,7.91
2023-05-25T06:20:41.525Z,7.96
2023-05-25T06:23:12.272Z,7.72
2023-05-25T06:25:43.001Z,7.38
2023-05-25T06:28:11.912Z,7.31
2023-05-25T06:30:42.703Z,7.40
2023-05-25T06:33:12.962Z,7.06
2023-05-25T06:35:43.747Z,6.63
2023-05-25T06:38:14.535Z,6.79
2023-05-25T06:40:44.750Z,6.70
2023-05-25T06:43:16.258Z,6.58
2023-05-25T06:46:01.750Z,6.42
2023-05-25T06:48:32.752Z,6.30
2023-05-25T06:51:01.621Z,6.19
2023-05-25T06:53:30.196Z,6.12
2023-05-25T06:55:58.798Z,6.13
2023-05-25T06:58:28.299Z,6.33
2023-05-25T07:00:56.977Z,6.31
2023-05-25T07:03:26.263Z,6.15
2023-05-25T07:12:42.106Z,5.99
2023-05-25T07:15:13.945Z,6.22
2023-05-25T07:17:43.028Z,5.80
2023-05-25T07:20:14.823Z,6.07
2023-05-25T07:22:44.946Z,5.86
2023-05-25T07:25:13.699Z,5.83
2023-05-25T07:27:43.270Z,5.94
2023-05-25T07:30:13.805Z,5.78
2023-05-25T07:32:43.789Z,5.47
2023-05-25T07:35:15.406Z,5.52
2023-05-25T07:37:45.064Z,5.44
2023-05-25T07:40:13.660Z,5.45
2023-05-25T07:42:43.504Z,5.29
2023-05-25T07:45:16.558Z,5.04
2023-05-25T07:47:45.289Z,5.18
2023-05-25T07:50:14.841Z,5.22
2023-05-25T07:52:44.128Z,5.10
2023-05-25T07:55:12.854Z,5.14
2023-05-25T07:57:41.728Z,5.12
2023-05-25T08:00:11.627Z,4.94
2023-05-25T08:02:46.023Z,4.86
2023-05-25T08:05:17.665Z,4.82
2023-05-25T08:07:48.026Z,5.00
2023-05-25T08:10:16.933Z,4.78
2023-05-25T08:12:49.416Z,4.63
2023-05-25T08:15:18.731Z,4.68
2023-05-25T08:17:50.078Z,4.96
2023-05-25T08:20:19.161Z,4.79
2023-05-25T08:22:47.518Z,4.77
2023-05-25T08:25:18.089Z,4.85
2023-05-25T08:27:46.958Z,5.05
2023-05-25T08:30:16.967Z,4.92
2023-05-25T08:32:46.017Z,4.84
2023-05-25T08:35:16.002Z,4.93
2023-05-25T08:37:46.120Z,4.88
2023-05-25T08:40:18.496Z,4.65
2023-05-25T08:42:47.530Z,4.59
2023-05-25T08:45:30.470Z,4.55
2023-05-25T08:48:05.217Z,4.45
2023-05-25T08:50:34.475Z,4.21
2023-05-25T08:53:04.937Z,4.16
2023-05-25T08:55:38.736Z,4.05
2023-05-25T08:58:18.021Z,3.94
2023-05-25T09:00:56.887Z,3.47
2023-05-25T09:03:27.627Z,3.41
2023-05-25T09:05:57.829Z,3.67
2023-05-25T09:08:28.060Z,3.71
2023-05-25T09:10:57.694Z,4.25
2023-05-25T09:13:26.179Z,4.44
2023-05-25T09:15:56.123Z,4.35
2023-05-25T09:18:24.827Z,4.18
2023-05-25T09:20:54.302Z,3.48
2023-05-25T09:23:24.976Z,3.56
2023-05-25T09:25:54.509Z,3.73
2023-05-25T09:28:27.243Z,4.05
2023-05-25T09:31:03.598Z,3.86
2023-05-25T09:33:32.337Z,3.71
2023-05-25T09:36:01.273Z,3.64
2023-05-25T09:38:32.012Z,3.80
2023-05-25T09:41:00.755Z,4.13
2023-05-25T09:43:41.373Z,4.13
2023-05-25T09:46:13.701Z,4.08
2023-05-25T09:48:42.684Z,4.27
2023-05-25T09:51:11.866Z,4.44
2023-05-25T09:53:40.451Z,4.57
2023-05-25T09:56:11.046Z,4.64
2023-05-25T09:58:41.483Z,4.81
2023-05-25T10:01:10.405Z,5.18
2023-05-25T10:03:59.633Z,5.78
2023-05-25T10:06:36.589Z,5.89
2023-05-25T10:09:08.433Z,6.35
2023-05-25T10:11:38.369Z,6.46
2023-05-25T10:14:08.465Z,6.71
2023-05-25T10:16:41.572Z,6.73
2023-05-25T10:19:46.167Z,6.67
2023-05-25T10:22:24.459Z,6.70
2023-05-25T10:24:59.405Z,6.81
2023-05-25T10:27:34.435Z,6.80
2023-05-25T10:30:02.839Z,6.21
2023-05-25T10:32:31.743Z,5.87
2023-05-25T10:35:00.198Z,5.72
2023-05-25T10:37:29.372Z,5.92
2023-05-25T10:39:59.189Z,5.97
2023-05-25T10:42:30.532Z,6.07
2023-05-25T10:44:58.818Z,6.17
2023-05-25T10:47:27.992Z,6.01
2023-05-25T10:49:58.727Z,6.18
2023-05-25T10:52:31.128Z,6.22
2023-05-25T10:55:04.712Z,6.31
2023-05-25T10:57:33.498Z,6.33
2023-05-25T11:00:09.728Z,6.55
2023-05-25T11:02:56.380Z,6.50
2023-05-25T11:05:28.462Z,6.44
2023-05-25T11:08:01.441Z,6.51
2023-05-25T11:10:42.716Z,6.58
2023-05-25T11:13:33.729Z,6.74
2023-05-25T11:16:23.557Z,6.71
2023-05-25T11:18:58.272Z,6.82
2023-05-25T11:21:27.633Z,7.01
2023-05-25T11:24:09.329Z,6.96
2023-05-25T11:26:37.932Z,7.09
2023-05-25T11:29:16.404Z,7.39
2023-05-25T11:31:46.383Z,7.72
2023-05-25T11:34:14.929Z,7.73
2023-05-25T11:36:44.467Z,7.76
2023-05-25T11:39:20.894Z,7.82
2023-05-25T11:41:53.773Z,7.90
2023-05-25T11:44:37.327Z,7.93
2023-05-25T11:47:10.345Z,8.07
2023-05-25T11:49:47.506Z,7.96
2023-05-25T11:52:21.346Z,8.08
2023-05-25T11:54:49.870Z,8.19
2023-05-25T11:57:21.264Z,8.15
2023-05-25T11:59:51.313Z,8.14
2023-05-25T12:02:22.000Z,8.14
2023-05-25T12:05:11.158Z,7.90
2023-05-25T12:07:44.653Z,7.82
2023-05-25T12:10:16.344Z,8.02
2023-05-25T12:12:51.707Z,7.88
2023-05-25T12:15:24.416Z,7.98
2023-05-25T12:17:55.110Z,7.89
2023-05-25T12:20:23.510Z,7.82
2023-05-25T12:22:53.083Z,7.65
2023-05-25T12:25:26.002Z,7.65
2023-05-25T12:28:13.854Z,7.57
2023-05-25T12:30:42.351Z,7.67
2023-05-25T12:33:11.306Z,7.56
2023-05-25T12:35:51.176Z,7.55
2023-05-25T12:38:20.483Z,7.44
2023-05-25T12:40:49.137Z,7.32
2023-05-25T12:43:18.117Z,7.24
2023-05-25T12:45:46.875Z,7.16
2023-05-25T12:48:15.043Z,7.04
2023-05-25T12:51:02.645Z,6.69
2023-05-25T12:53:34.530Z,6.28
2023-05-25T12:56:05.060Z,6.03
2023-05-25T12:58:33.909Z,5.85
2023-05-25T13:01:03.079Z,5.35
2023-05-25T13:03:35.510Z,5.35
2023-05-25T13:06:06.044Z,5.16
2023-05-25T13:08:35.312Z,4.76
2023-05-25T13:11:05.481Z,4.86
2023-05-25T13:13:33.800Z,4.57
2023-05-25T13:16:02.409Z,4.53
2023-05-25T13:18:31.081Z,4.39
2023-05-25T13:21:00.302Z,4.31
2023-05-25T13:23:29.602Z,4.50
2023-05-25T13:25:58.368Z,4.11
2023-05-25T13:28:26.962Z,4.12
2023-05-25T13:30:55.504Z,4.33
2023-05-25T13:33:26.199Z,4.19
2023-05-25T13:36:23.321Z,4.18
2023-05-25T13:38:52.151Z,4.09
2023-05-25T13:41:20.443Z,4.23
2023-05-25T13:43:50.008Z,4.10
2023-05-25T13:46:33.706Z,4.35
2023-05-25T13:49:05.740Z,4.48
2023-05-25T13:51:36.567Z,4.32
2023-05-25T13:54:06.747Z,4.13
2023-05-25T13:56:35.158Z,4.52
2023-05-25T13:59:03.501Z,4.48
2023-05-25T14:01:37.153Z,4.42
2023-05-25T14:04:06.997Z,4.38
2023-05-25T14:06:36.313Z,4.38
2023-05-25T14:09:08.294Z,4.36
2023-05-25T14:11:37.685Z,4.43
2023-05-25T14:14:13.677Z,4.68
2023-05-25T14:16:49.289Z,4.81
2023-05-25T14:19:18.052Z,4.96
2023-05-25T14:21:49.763Z,5.12
2023-05-25T14:24:22.640Z,5.30
2023-05-25T14:26:51.688Z,5.46
2023-05-25T14:29:20.736Z,5.47
2023-05-25T14:31:49.225Z,5.51
2023-05-25T14:34:19.608Z,5.84
2023-05-25T14:36:49.406Z,5.99
2023-05-25T14:39:18.319Z,6.11
2023-05-25T14:41:48.103Z,6.47
2023-05-25T14:44:18.114Z,6.58
2023-05-25T14:46:47.762Z,6.61
2023-05-25T14:49:18.594Z,6.72
2023-05-25T14:51:47.149Z,6.81
2023-05-25T14:54:15.666Z,6.99
2023-05-25T14:56:45.271Z,7.01
2023-05-25T14:59:13.615Z,6.97
2023-05-25T15:01:45.325Z,7.11
2023-05-25T15:04:17.694Z,7.41
2023-05-25T15:06:46.266Z,7.36
2023-05-25T15:09:17.204Z,7.38
2023-05-25T15:11:47.517Z,7.40
2023-05-25T15:14:17.063Z,7.39
2023-05-25T15:16:46.014Z,7.18
2023-05-25T15:19:17.313Z,7.06
2023-05-25T15:21:46.961Z,6.81
2023-05-25T15:24:17.483Z,6.57
2023-05-25T15:26:50.915Z,6.63
2023-05-25T15:29:20.666Z,6.37
2023-05-25T15:31:55.111Z,6.28
2023-05-25T15:34:24.033Z,5.96
2023-05-25T15:36:54.638Z,5.81
2023-05-25T15:39:23.122Z,5.88
2023-05-25T15:41:51.791Z,5.65
2023-05-25T15:44:20.622Z,5.55
2023-05-25T15:46:51.795Z,5.51
2023-05-25T15:49:21.675Z,5.58
2023-05-25T15:51:54.148Z,5.62
2023-05-25T15:54:22.508Z,5.65
2023-05-25T15:56:50.913Z,5.83
2023-05-25T15:59:19.832Z,5.86
2023-05-25T16:01:48.846Z,5.98
2023-05-25T16:04:18.541Z,6.16
2023-05-25T16:06:49.536Z,6.15
2023-05-25T16:09:17.961Z,6.01
2023-05-25T16:11:46.870Z,6.04
2023-05-25T16:14:15.730Z,5.97
2023-05-25T16:16:44.557Z,5.82
2023-05-25T16:19:13.975Z,5.76
2023-05-25T16:21:42.905Z,5.69
2023-05-25T16:24:13.471Z,5.72
2023-05-25T16:26:41.901Z,5.63
2023-05-25T16:29:10.531Z,5.80
2023-05-25T16:31:38.999Z,5.98
2023-05-25T16:34:08.028Z,6.22
2023-05-25T16:36:36.407Z,6.47
2023-05-25T16:39:05.628Z,6.59
2023-05-25T16:41:34.112Z,6.64
2023-05-25T16:44:03.848Z,6.57
2023-05-25T16:46:34.309Z,6.54
2023-05-25T16:49:04.708Z,6.72
2023-05-25T16:51:33.391Z,6.86
2023-05-25T16:54:02.238Z,7.10
2023-05-25T16:56:31.339Z,7.04
2023-05-25T16:58:59.500Z,7.15
2023-05-25T17:01:27.989Z,6.92
2023-05-25T17:03:58.588Z,7.16
2023-05-25T17:06:27.339Z,7.43
2023-05-25T17:08:56.199Z,7.48
2023-05-25T17:11:27.044Z,7.79
2023-05-25T17:13:55.615Z,7.85
2023-05-25T17:16:26.406Z,8.30
2023-05-25T17:18:58.985Z,8.47
2023-05-25T17:21:27.570Z,8.62
2023-05-25T17:23:57.012Z,8.56
2023-05-25T17:26:25.644Z,8.76
2023-05-25T17:28:55.650Z,8.86
2023-05-25T17:31:24.434Z,8.86
2023-05-25T17:33:54.627Z,8.92
2023-05-25T17:36:27.006Z,9.03
2023-05-25T17:38:56.708Z,9.06
2023-05-25T17:41:26.009Z,9.14
2023-05-25T17:43:56.455Z,9.25
2023-05-25T17:46:24.936Z,9.41
2023-05-25T17:48:53.809Z,9.39
2023-05-25T17:51:23.416Z,9.72
2023-05-25T17:53:51.590Z,9.65
2023-05-25T17:56:20.515Z,9.60
2023-05-25T17:58:50.021Z,9.67
2023-05-25T18:01:21.298Z,9.67
2023-05-25T18:03:54.026Z,9.85
2023-05-25T18:06:23.501Z,10.02
2023-05-25T18:08:52.310Z,10.01
2023-05-25T18:11:21.411Z,10.05
2023-05-25T18:13:51.332Z,10.00
2023-05-25T18:16:23.601Z,10.01
2023-05-25T18:18:53.945Z,10.16
2023-05-25T18:21:23.688Z,10.22
2023-05-25T18:23:53.170Z,10.23
2023-05-25T18:26:22.750Z,10.47
2023-05-25T18:28:52.234Z,10.64
2023-05-25T18:31:21.275Z,10.53
2023-05-25T18:33:50.042Z,10.65
2023-05-25T18:36:21.873Z,10.76
2023-05-25T18:38:51.393Z,10.76
2023-05-25T18:41:21.598Z,10.83
2023-05-25T18:43:51.119Z,10.83
2023-05-25T18:46:19.654Z,10.70
2023-05-25T18:48:49.127Z,10.70
2023-05-25T18:51:17.877Z,10.66
2023-05-25T18:53:46.581Z,10.72
2023-05-25T18:56:15.257Z,10.86
2023-05-25T18:58:43.524Z,10.86
2023-05-25T19:01:11.735Z,10.99
2023-05-25T19:03:40.698Z,10.90
2023-05-25T19:06:11.583Z,10.84
2023-05-25T19:08:41.952Z,10.95
2023-05-25T19:11:11.282Z,10.89
2023-05-25T19:13:41.067Z,10.89
2023-05-25T19:16:10.217Z,10.88
2023-05-25T19:18:39.999Z,10.94
2023-05-25T19:21:09.115Z,11.02
2023-05-25T19:23:37.937Z,11.04
2023-05-25T19:26:06.554Z,11.18
2023-05-25T19:28:37.237Z,11.17
2023-05-25T19:31:05.500Z,11.20
2023-05-25T19:33:35.879Z,11.18
2023-05-25T19:36:06.165Z,11.30
2023-05-25T19:38:41.801Z,11.34
2023-05-25T19:41:13.972Z,11.38
2023-05-25T19:43:43.375Z,11.35
2023-05-25T19:46:12.019Z,11.42
2023-05-25T19:48:41.743Z,11.47
2023-05-25T19:51:09.913Z,11.58
2023-05-25T19:53:38.074Z,11.57
2023-05-25T19:56:06.822Z,11.63
2023-05-25T19:58:37.348Z,11.66
2023-05-25T20:01:07.294Z,11.68
2023-05-25T20:03:36.514Z,11.85
2023-05-25T20:06:05.933Z,11.84
2023-05-25T20:08:34.579Z,11.78
2023-05-25T20:11:05.980Z,11.92
2023-05-25T20:13:34.415Z,11.97
2023-05-25T20:16:02.524Z,11.98
2023-05-25T20:18:31.422Z,11.95
2023-05-25T20:21:00.004Z,11.95
2023-05-25T20:23:28.234Z,11.93
2023-05-25T20:25:56.709Z,12.12
2023-05-25T20:28:26.162Z,12.08
2023-05-25T20:30:54.602Z,11.95
2023-05-25T20:33:24.657Z,12.05
2023-05-25T20:35:53.716Z,12.24
2023-05-25T20:38:24.678Z,12.21
2023-05-25T20:40:55.484Z,12.23
2023-05-25T20:43:23.598Z,12.07
2023-05-25T20:45:54.120Z,12.29
2023-05-25T20:48:22.581Z,12.37
2023-05-25T20:50:50.952Z,12.32
2023-05-25T20:53:20.053Z,12.45
2023-05-25T20:55:48.632Z,12.38
2023-05-25T20:58:16.903Z,12.42
2023-05-25T21:00:47.287Z,12.53
2023-05-25T21:03:17.870Z,12.40
2023-05-25T21:05:47.993Z,12.28
2023-05-25T21:08:17.690Z,12.13
2023-05-25T21:10:47.351Z,12.02
2023-05-25T21:13:15.574Z,12.00
2023-05-25T21:15:44.035Z,12.10
2023-05-25T21:18:15.308Z,12.21
2023-05-25T21:20:45.874Z,12.19
2023-05-25T21:23:14.308Z,12.26
2023-05-25T21:25:42.658Z,12.32
2023-05-25T21:28:11.451Z,12.13
2023-05-25T21:30:40.267Z,12.28
2023-05-25T21:33:09.563Z,12.45
2023-05-25T21:35:38.451Z,12.46
2023-05-25T21:38:06.663Z,12.69
2023-05-25T21:40:35.727Z,12.66
2023-05-25T21:43:04.814Z,12.61
2023-05-25T21:45:33.282Z,12.44
2023-05-25T21:48:05.618Z,12.36
2023-05-25T21:50:37.329Z,12.33
2023-05-25T21:53:06.828Z,12.42
2023-05-25T21:55:35.124Z,12.24
2023-05-25T21:58:04.112Z,12.30
2023-05-25T22:00:35.226Z,12.25
2023-05-25T22:03:04.435Z,12.24
2023-05-25T22:05:35.913Z,12.28
2023-05-25T22:08:04.997Z,12.40
2023-05-25T22:10:33.204Z,12.42
2023-05-25T22:13:02.953Z,12.28
2023-05-25T22:15:31.873Z,12.30
2023-05-25T22:18:02.131Z,12.29
2023-05-25T22:20:31.602Z,12.20
2023-05-25T22:23:00.473Z,12.14
2023-05-25T22:25:29.173Z,12.22
2023-05-25T22:27:59.689Z,12.16
2023-05-25T22:30:29.320Z,12.15
2023-05-25T22:32:59.159Z,11.89
2023-05-25T22:35:28.771Z,11.97
2023-05-25T22:37:57.184Z,12.20
2023-05-25T22:40:26.101Z,12.09
2023-05-25T22:42:54.484Z,11.92
2023-05-25T22:45:23.614Z,12.12
2023-05-25T22:47:52.256Z,12.35
2023-05-25T22:50:20.534Z,12.54
2023-05-25T22:52:49.522Z,12.49
2023-05-25T22:55:18.103Z,12.54
2023-05-25T22:57:46.494Z,12.55
2023-05-25T23:00:15.099Z,12.50
2023-05-25T23:02:43.749Z,12.52
2023-05-25T23:05:12.560Z,12.63
2023-05-25T23:07:42.541Z,12.49
2023-05-25T23:10:11.817Z,12.43
2023-05-25T23:12:40.177Z,12.47
2023-05-25T23:15:10.236Z,12.54
2023-05-25T23:17:39.960Z,12.35
2023-05-25T23:20:09.889Z,12.25
2023-05-25T23:22:38.557Z,12.26
2023-05-25T23:25:08.110Z,12.25
2023-05-25T23:27:36.874Z,12.20
2023-05-25T23:30:07.287Z,12.23
2023-05-25T23:32:36.849Z,12.33
2023-05-25T23:35:05.691Z,12.31
2023-05-25T23:37:34.289Z,12.36
2023-05-25T23:40:02.680Z,12.25
2023-05-25T23:42:39.898Z,12.24
2023-05-25T23:45:09.249Z,12.39
2023-05-25T23:47:38.876Z,12.32
2023-05-25T23:50:07.740Z,12.29
2023-05-25T23:52:35.889Z,12.34
2023-05-25T23:55:07.210Z,12.34
2023-05-25T23:57:38.184Z,12.40
